Time;durP1;ratioP1;P1;durP2;ratioP2;P2;SDS_P1;SDS_P2;PMS_P1;PMS_P2;Temp;Humidity;BMP_temperature;BMP_pressure;BME280_temperature;BME280_humidity;BME280_pressure;Samples;Min_cycle;Max_cycle;Signal;HPM_P1;HPM_P2
2023/06/20 00:02:22;;;;;;;13.63;8.50;;;;;;;;;;5076418;28;20110;-51
2023/06/20 00:04:49;;;;;;;21.65;9.32;;;;;;;;;;5078686;28;20532;-51
2023/06/20 00:07:15;;;;;;;21.75;7.82;;;;;;;;;;5081323;28;20041;-51
2023/06/20 00:09:41;;;;;;;18.85;8.13;;;;;;;;;;5079369;28;20131;-51
2023/06/20 00:12:07;;;;;;;17.92;9.07;;;;;;;;;;5080327;28;20040;-51
2023/06/20 00:14:37;;;;;;;16.15;8.68;;;;;;;;;;5080060;28;20037;-51
2023/06/20 00:17:05;;;;;;;25.00;9.65;;;;;;;;;;5080254;28;20122;-51
2023/06/20 00:19:31;;;;;;;18.58;8.95;;;;;;;;;;5078957;28;20098;-51
2023/06/20 00:21:57;;;;;;;22.38;10.35;;;;;;;;;;5079845;28;20072;-51
2023/06/20 00:24:24;;;;;;;19.48;8.35;;;;;;;;;;5079440;28;20057;-51
2023/06/20 00:26:50;;;;;;;25.67;9.18;;;;;;;;;;5079230;28;20811;-51
2023/06/20 00:29:16;;;;;;;17.25;8.77;;;;;;;;;;5080218;28;20036;-51
2023/06/20 00:31:42;;;;;;;25.27;8.85;;;;;;;;;;5078944;28;20075;-51
2023/06/20 00:34:08;;;;;;;24.67;8.68;;;;;;;;;;5079107;28;20048;-51
2023/06/20 00:36:34;;;;;;;17.58;8.05;;;;;;;;;;5079668;28;20041;-52
2023/06/20 00:39:00;;;;;;;16.00;7.72;;;;;;;;;;5080166;28;20040;-51
2023/06/20 00:41:26;;;;;;;15.73;8.35;;;;;;;;;;5079562;27;20039;-51
2023/06/20 00:43:52;;;;;;;22.80;8.82;;;;;;;;;;5079074;28;20470;-51
2023/06/20 00:46:20;;;;;;;21.90;9.25;;;;;;;;;;5078908;28;20045;-51
2023/06/20 00:48:48;;;;;;;18.60;6.97;;;;;;;;;;5078787;28;20379;-51
2023/06/20 00:51:15;;;;;;;27.98;8.88;;;;;;;;;;5078676;28;20045;-51
2023/06/20 00:53:42;;;;;;;16.08;7.53;;;;;;;;;;5080148;28;20040;-51
2023/06/20 00:56:10;;;;;;;19.40;8.10;;;;;;;;;;5075392;28;20066;-51
2023/06/20 00:58:36;;;;;;;13.07;7.05;;;;;;;;;;5078803;28;20528;-51
2023/06/20 01:01:02;;;;;;;19.85;8.18;;;;;;;;;;5078663;28;20633;-51
2023/06/20 01:03:28;;;;;;;30.48;7.00;;;;;;;;;;5078602;28;20047;-51
2023/06/20 01:06:05;;;;;;;26.42;6.82;;;;;;;;;;5078674;27;20059;-51
2023/06/20 01:08:34;;;;;;;25.63;7.85;;;;;;;;;;5078827;28;20047;-51
2023/06/20 01:11:25;;;;;;;16.73;7.72;;;;;;;;;;5069275;28;20533;-51
2023/06/20 01:14:00;;;;;;;14.98;6.65;;;;;;;;;;5078656;28;20049;-51
2023/06/20 01:16:29;;;;;;;16.45;7.10;;;;;;;;;;5079090;28;20084;-51
2023/06/20 01:19:01;;;;;;;29.48;9.43;;;;;;;;;;5078645;28;20060;-51
2023/06/20 01:21:34;;;;;;;22.88;7.40;;;;;;;;;;5078205;28;20143;-51
2023/06/20 01:24:21;;;;;;;20.90;9.65;;;;;;;;;;5074990;28;20060;-51
2023/06/20 01:27:00;;;;;;;21.48;8.98;;;;;;;;;;5079388;28;20045;-51
2023/06/20 01:29:32;;;;;;;23.77;8.65;;;;;;;;;;5078594;28;20045;-51
2023/06/20 01:31:59;;;;;;;19.10;8.45;;;;;;;;;;5078935;28;20610;-51
2023/06/20 01:34:27;;;;;;;22.42;8.85;;;;;;;;;;5077170;28;20072;-51
2023/06/20 01:36:55;;;;;;;23.05;8.90;;;;;;;;;;5077628;28;20052;-51
2023/06/20 01:39:26;;;;;;;28.63;9.00;;;;;;;;;;5092936;27;20060;-51
2023/06/20 01:41:54;;;;;;;17.53;8.10;;;;;;;;;;5077186;28;20049;-51
2023/06/20 01:44:20;;;;;;;20.38;9.48;;;;;;;;;;5079077;28;20036;-51
2023/06/20 01:46:48;;;;;;;14.10;8.57;;;;;;;;;;5094650;27;20083;-51
2023/06/20 01:49:15;;;;;;;22.17;9.02;;;;;;;;;;5077550;28;20036;-51
2023/06/20 01:51:42;;;;;;;20.35;9.52;;;;;;;;;;5093547;27;20527;-51
2023/06/20 01:54:09;;;;;;;25.25;8.32;;;;;;;;;;5093987;27;20044;-51
2023/06/20 01:56:35;;;;;;;23.00;9.43;;;;;;;;;;5077981;28;20041;-51
2023/06/20 01:59:02;;;;;;;26.65;10.23;;;;;;;;;;5077761;28;20041;-51
2023/06/20 02:01:29;;;;;;;21.98;8.50;;;;;;;;;;5078709;28;20122;-51
2023/06/20 02:03:56;;;;;;;26.35;9.15;;;;;;;;;;5079617;28;20044;-51
2023/06/20 02:06:23;;;;;;;21.77;7.75;;;;;;;;;;5076729;28;20063;-51
2023/06/20 02:08:50;;;;;;;30.00;8.52;;;;;;;;;;5079180;28;20523;-51
2023/06/20 02:11:17;;;;;;;26.95;11.50;;;;;;;;;;5076504;28;20064;-51
2023/06/20 02:13:43;;;;;;;19.48;7.55;;;;;;;;;;5078259;28;20039;-51
2023/06/20 02:16:10;;;;;;;20.40;7.70;;;;;;;;;;5077666;28;20053;-51
2023/06/20 02:18:36;;;;;;;19.20;8.77;;;;;;;;;;5077980;28;20115;-51
2023/06/20 02:21:06;;;;;;;22.50;8.95;;;;;;;;;;5076156;28;20612;-51
2023/06/20 02:23:34;;;;;;;20.10;8.55;;;;;;;;;;5077578;28;20084;-51
2023/06/20 02:26:08;;;;;;;22.85;8.32;;;;;;;;;;5076750;28;20383;-51
2023/06/20 02:28:40;;;;;;;19.90;7.43;;;;;;;;;;5076770;28;20596;-51
2023/06/20 02:31:08;;;;;;;12.18;6.88;;;;;;;;;;5078538;28;20071;-52
2023/06/20 02:33:36;;;;;;;19.92;6.75;;;;;;;;;;5077168;28;20041;-51
2023/06/20 02:36:02;;;;;;;21.15;6.53;;;;;;;;;;5077823;28;20051;-51
2023/06/20 02:38:28;;;;;;;21.20;6.78;;;;;;;;;;5077729;28;20049;-51
2023/06/20 02:40:54;;;;;;;18.80;7.05;;;;;;;;;;5076762;28;20198;-51
2023/06/20 02:43:21;;;;;;;23.75;5.75;;;;;;;;;;5077716;28;20371;-51
2023/06/20 02:45:47;;;;;;;31.75;7.70;;;;;;;;;;5078025;28;20487;-51
2023/06/20 02:48:13;;;;;;;26.05;6.78;;;;;;;;;;5077213;28;20520;-51
2023/06/20 02:51:00;;;;;;;16.15;6.43;;;;;;;;;;5077713;28;20098;-51
2023/06/20 02:53:35;;;;;;;16.20;6.57;;;;;;;;;;5078262;28;20661;-51
2023/06/20 02:56:02;;;;;;;15.38;5.90;;;;;;;;;;5076619;28;20045;-51
2023/06/20 02:58:30;;;;;;;16.73;7.50;;;;;;;;;;5077856;28;20485;-51
2023/06/20 03:00:58;;;;;;;22.33;7.10;;;;;;;;;;5077631;28;20032;-51
2023/06/20 03:03:26;;;;;;;21.10;6.55;;;;;;;;;;5077642;28;20041;-51
2023/06/20 03:05:59;;;;;;;20.20;6.22;;;;;;;;;;5076130;28;20037;-51
2023/06/20 03:08:29;;;;;;;30.58;7.80;;;;;;;;;;5077998;28;20047;-51
2023/06/20 03:10:56;;;;;;;21.17;5.38;;;;;;;;;;5076230;28;20535;-51
2023/06/20 03:13:22;;;;;;;22.10;6.65;;;;;;;;;;5077409;28;20111;-51
2023/06/20 03:15:51;;;;;;;18.00;5.68;;;;;;;;;;5077541;28;20084;-51
2023/06/20 03:18:18;;;;;;;24.42;6.82;;;;;;;;;;5078529;28;20555;-51
2023/06/20 03:20:48;;;;;;;26.55;6.93;;;;;;;;;;5076878;28;20066;-51
2023/06/20 03:23:14;;;;;;;20.67;7.90;;;;;;;;;;5093067;28;20076;-51
2023/06/20 03:25:40;;;;;;;24.08;7.78;;;;;;;;;;5076153;28;20094;-51
2023/06/20 03:28:07;;;;;;;18.50;6.82;;;;;;;;;;5076619;28;20106;-51
2023/06/20 03:30:33;;;;;;;23.05;6.28;;;;;;;;;;5068808;28;20047;-51
2023/06/20 03:32:59;;;;;;;13.40;5.55;;;;;;;;;;5077473;28;20528;-51
2023/06/20 03:35:25;;;;;;;17.45;6.55;;;;;;;;;;5077147;28;20068;-51
2023/06/20 03:37:51;;;;;;;19.13;5.72;;;;;;;;;;5076705;28;20052;-50
2023/06/20 03:40:17;;;;;;;18.85;6.95;;;;;;;;;;5077241;28;20040;-51
2023/06/20 03:42:43;;;;;;;21.50;8.70;;;;;;;;;;5077363;28;20032;-52
2023/06/20 03:45:09;;;;;;;30.13;6.53;;;;;;;;;;5067936;28;20071;-51
2023/06/20 03:47:35;;;;;;;24.52;7.25;;;;;;;;;;5077186;28;20045;-51
2023/06/20 03:50:01;;;;;;;26.80;6.35;;;;;;;;;;5076400;28;20036;-51
2023/06/20 03:52:28;;;;;;;27.38;6.63;;;;;;;;;;5091912;27;20525;-51
2023/06/20 03:54:54;;;;;;;26.88;8.45;;;;;;;;;;5075804;28;20075;-51
2023/06/20 03:57:20;;;;;;;24.17;6.93;;;;;;;;;;5076850;28;20028;-51
2023/06/20 03:59:46;;;;;;;24.02;7.55;;;;;;;;;;5076397;28;20041;-51
2023/06/20 04:02:12;;;;;;;28.25;7.15;;;;;;;;;;5077070;28;20051;-51
2023/06/20 04:04:38;;;;;;;27.67;7.00;;;;;;;;;;5075650;28;20602;-51
2023/06/20 04:07:05;;;;;;;19.73;6.88;;;;;;;;;;5076349;28;20040;-51
2023/06/20 04:09:31;;;;;;;23.15;6.00;;;;;;;;;;5075735;28;20029;-52
2023/06/20 04:11:57;;;;;;;25.77;6.63;;;;;;;;;;5076422;28;20043;-51
2023/06/20 04:14:23;;;;;;;19.45;6.43;;;;;;;;;;5076177;28;20116;-51
2023/06/20 04:16:49;;;;;;;24.73;6.95;;;;;;;;;;5076562;28;20044;-51
2023/06/20 04:19:16;;;;;;;19.20;5.57;;;;;;;;;;5076280;28;21497;-51
2023/06/20 04:21:42;;;;;;;22.63;6.40;;;;;;;;;;5075940;28;20093;-51
2023/06/20 04:24:08;;;;;;;15.52;6.57;;;;;;;;;;5075570;28;20063;-51
2023/06/20 04:26:37;;;;;;;23.65;6.20;;;;;;;;;;5077482;28;20051;-51
2023/06/20 04:29:04;;;;;;;23.98;5.82;;;;;;;;;;5076815;28;20048;-50
2023/06/20 04:31:30;;;;;;;31.35;7.45;;;;;;;;;;5074626;28;20048;-51
2023/06/20 04:33:57;;;;;;;38.22;7.15;;;;;;;;;;5074170;28;20052;-51
2023/06/20 04:36:23;;;;;;;26.35;7.05;;;;;;;;;;5076044;28;20072;-51
2023/06/20 04:38:49;;;;;;;25.05;7.82;;;;;;;;;;5076612;28;21308;-51
2023/06/20 04:41:15;;;;;;;24.90;6.90;;;;;;;;;;5074378;28;20527;-51
2023/06/20 04:43:44;;;;;;;19.17;5.75;;;;;;;;;;5076099;28;20514;-51
2023/06/20 04:46:15;;;;;;;21.50;6.65;;;;;;;;;;5076371;28;20074;-51
2023/06/20 04:48:41;;;;;;;24.23;7.67;;;;;;;;;;5076466;28;20044;-51
2023/06/20 04:51:09;;;;;;;17.55;5.65;;;;;;;;;;5078293;28;20029;-51
2023/06/20 04:53:35;;;;;;;32.13;5.63;;;;;;;;;;5080005;28;20036;-51
2023/06/20 04:56:01;;;;;;;22.35;5.93;;;;;;;;;;5077360;28;20440;-51
2023/06/20 04:58:28;;;;;;;19.88;6.85;;;;;;;;;;5071727;28;20040;-51
2023/06/20 05:00:57;;;;;;;18.63;6.05;;;;;;;;;;5079174;28;20110;-51
2023/06/20 05:03:24;;;;;;;20.90;6.50;;;;;;;;;;5078922;28;20564;-51
2023/06/20 05:05:50;;;;;;;27.88;5.88;;;;;;;;;;5078366;27;20427;-51
2023/06/20 05:08:16;;;;;;;19.38;5.85;;;;;;;;;;5077620;28;20537;-51
2023/06/20 05:10:42;;;;;;;27.63;8.25;;;;;;;;;;5078266;27;20048;-51
2023/06/20 05:13:08;;;;;;;18.38;5.45;;;;;;;;;;5078737;27;20056;-51
2023/06/20 05:15:34;;;;;;;20.20;7.20;;;;;;;;;;5078615;28;20047;-52
2023/06/20 05:18:01;;;;;;;19.52;6.00;;;;;;;;;;5080254;28;20048;-51
2023/06/20 05:20:27;;;;;;;20.73;6.68;;;;;;;;;;5079580;28;20650;-51
2023/06/20 05:22:53;;;;;;;17.77;5.05;;;;;;;;;;5092352;27;20168;-51
2023/06/20 05:25:19;;;;;;;18.23;6.95;;;;;;;;;;5077887;28;20059;-51
2023/06/20 05:27:47;;;;;;;13.27;5.53;;;;;;;;;;5077988;28;20032;-51
2023/06/20 05:30:13;;;;;;;21.98;5.80;;;;;;;;;;5078163;28;20626;-51
2023/06/20 05:32:39;;;;;;;17.10;7.07;;;;;;;;;;5076537;28;20520;-51
2023/06/20 05:35:07;;;;;;;19.17;6.20;;;;;;;;;;5074272;28;20570;-52
2023/06/20 05:37:33;;;;;;;17.75;5.75;;;;;;;;;;5078658;28;20096;-51
2023/06/20 05:39:59;;;;;;;17.85;5.47;;;;;;;;;;5077097;28;20040;-51
2023/06/20 05:42:25;;;;;;;14.27;6.32;;;;;;;;;;5079249;28;20052;-51
2023/06/20 05:44:51;;;;;;;15.27;5.25;;;;;;;;;;5077441;28;20071;-51
2023/06/20 05:47:17;;;;;;;16.85;5.70;;;;;;;;;;5078920;28;20063;-51
2023/06/20 05:49:46;;;;;;;17.55;6.35;;;;;;;;;;5075642;28;20045;-50
2023/06/20 05:52:12;;;;;;;13.13;4.97;;;;;;;;;;5094114;27;20051;-50
2023/06/20 05:54:38;;;;;;;15.25;5.50;;;;;;;;;;5076561;28;20041;-51
2023/06/20 05:57:08;;;;;;;25.10;7.28;;;;;;;;;;5078288;28;20610;-50
2023/06/20 05:59:34;;;;;;;15.98;5.45;;;;;;;;;;5077927;28;20119;-50
2023/06/20 06:02:00;;;;;;;13.38;5.07;;;;;;;;;;5077196;28;20049;-50
2023/06/20 06:04:27;;;;;;;11.68;5.10;;;;;;;;;;5075746;28;20532;-50
2023/06/20 06:06:53;;;;;;;12.95;6.32;;;;;;;;;;5078525;28;20071;-50
2023/06/20 06:09:20;;;;;;;12.32;5.53;;;;;;;;;;5077858;28;20199;-50
2023/06/20 06:11:46;;;;;;;13.15;6.22;;;;;;;;;;5077522;28;20086;-50
2023/06/20 06:14:14;;;;;;;11.57;6.13;;;;;;;;;;5078263;28;20048;-50
2023/06/20 06:16:40;;;;;;;15.50;6.07;;;;;;;;;;5076915;28;20040;-51
2023/06/20 06:19:07;;;;;;;10.52;4.88;;;;;;;;;;5077148;28;20135;-51
2023/06/20 06:21:33;;;;;;;8.10;4.45;;;;;;;;;;5078615;28;20041;-50
2023/06/20 06:23:59;;;;;;;10.50;5.18;;;;;;;;;;5076399;28;20063;-51
2023/06/20 06:26:25;;;;;;;10.88;5.43;;;;;;;;;;5078014;27;20041;-50
2023/06/20 06:28:51;;;;;;;10.63;5.05;;;;;;;;;;5078194;28;20110;-50
2023/06/20 06:31:20;;;;;;;19.42;6.68;;;;;;;;;;5078147;28;20447;-51
2023/06/20 06:33:48;;;;;;;13.47;5.47;;;;;;;;;;5077660;28;20057;-51
2023/06/20 06:36:16;;;;;;;13.32;5.35;;;;;;;;;;5076841;28;20282;-51
2023/06/20 06:38:48;;;;;;;10.18;4.70;;;;;;;;;;5077492;28;20045;-50
2023/06/20 06:41:14;;;;;;;9.23;5.18;;;;;;;;;;5077371;28;20063;-50
2023/06/20 06:43:41;;;;;;;12.45;5.07;;;;;;;;;;5075937;28;20451;-51
2023/06/20 06:46:07;;;;;;;9.43;5.18;;;;;;;;;;5070550;28;20049;-50
2023/06/20 06:48:33;;;;;;;9.52;5.18;;;;;;;;;;5077513;28;20044;-50
2023/06/20 06:50:59;;;;;;;10.27;4.70;;;;;;;;;;5077152;28;20125;-51
2023/06/20 06:53:25;;;;;;;17.45;5.10;;;;;;;;;;5077063;28;20147;-50
2023/06/20 06:55:51;;;;;;;11.30;4.88;;;;;;;;;;5076807;28;20117;-50
2023/06/20 06:58:17;;;;;;;11.00;5.85;;;;;;;;;;5068990;28;20129;-50
2023/06/20 07:00:43;;;;;;;14.45;6.65;;;;;;;;;;5077203;28;20040;-51
2023/06/20 07:03:10;;;;;;;10.07;5.45;;;;;;;;;;5077168;28;20049;-51
2023/06/20 07:05:37;;;;;;;12.65;5.43;;;;;;;;;;5077316;28;20041;-50
2023/06/20 07:08:03;;;;;;;8.20;4.63;;;;;;;;;;5077192;28;20060;-50
2023/06/20 07:10:29;;;;;;;9.73;5.25;;;;;;;;;;5076565;28;20206;-50
2023/06/20 07:12:55;;;;;;;7.53;5.07;;;;;;;;;;5077044;28;20036;-50
2023/06/20 07:15:21;;;;;;;13.65;5.38;;;;;;;;;;5077194;28;20128;-50
2023/06/20 07:17:47;;;;;;;13.27;5.32;;;;;;;;;;5076973;28;20084;-51
2023/06/20 07:20:13;;;;;;;11.82;5.57;;;;;;;;;;5076743;28;20032;-51
2023/06/20 07:22:40;;;;;;;7.93;5.78;;;;;;;;;;5077040;28;20044;-51
2023/06/20 07:25:08;;;;;;;13.30;6.20;;;;;;;;;;5076751;28;20048;-50
2023/06/20 07:27:34;;;;;;;18.38;6.82;;;;;;;;;;5077124;28;20186;-51
2023/06/20 07:30:00;;;;;;;18.58;6.25;;;;;;;;;;5075378;28;20036;-50
2023/06/20 07:32:26;;;;;;;11.65;6.07;;;;;;;;;;5076321;28;20067;-50
2023/06/20 07:34:52;;;;;;;12.20;5.78;;;;;;;;;;5091918;27;20040;-50
2023/06/20 07:37:18;;;;;;;13.02;6.97;;;;;;;;;;5076289;28;20456;-50
2023/06/20 07:39:46;;;;;;;13.00;6.18;;;;;;;;;;5076627;28;20122;-50
2023/06/20 07:42:12;;;;;;;14.43;7.50;;;;;;;;;;5076501;28;20150;-50
2023/06/20 07:44:38;;;;;;;10.75;7.10;;;;;;;;;;5092008;27;20855;-51
2023/06/20 07:47:05;;;;;;;13.07;6.40;;;;;;;;;;5075522;28;20040;-51
2023/06/20 07:49:31;;;;;;;13.00;6.75;;;;;;;;;;5075092;28;20045;-51
2023/06/20 07:51:57;;;;;;;13.02;7.45;;;;;;;;;;5067752;28;20607;-50
2023/06/20 07:54:25;;;;;;;11.63;7.75;;;;;;;;;;5075568;28;20041;-51
2023/06/20 07:56:51;;;;;;;10.55;6.25;;;;;;;;;;5075069;28;20551;-51
2023/06/20 07:59:17;;;;;;;15.50;7.25;;;;;;;;;;5075638;28;20044;-51
2023/06/20 08:01:43;;;;;;;10.68;6.75;;;;;;;;;;5089378;27;20036;-51
2023/06/20 08:04:09;;;;;;;17.10;8.05;;;;;;;;;;5076593;28;20032;-51
2023/06/20 08:06:35;;;;;;;13.40;7.07;;;;;;;;;;5076467;28;20508;-50
2023/06/20 08:09:02;;;;;;;11.85;7.57;;;;;;;;;;5091656;27;20044;-51
2023/06/20 08:11:29;;;;;;;12.32;7.30;;;;;;;;;;5075509;28;20068;-50
2023/06/20 08:13:55;;;;;;;13.15;6.43;;;;;;;;;;5076911;27;20535;-51
2023/06/20 08:16:21;;;;;;;12.30;6.93;;;;;;;;;;5077146;28;20654;-50
2023/06/20 08:18:47;;;;;;;14.77;7.15;;;;;;;;;;5076188;28;20052;-51
2023/06/20 08:21:13;;;;;;;12.13;6.68;;;;;;;;;;5075985;28;20041;-50
2023/06/20 08:23:40;;;;;;;11.48;6.30;;;;;;;;;;5076319;28;20147;-51
2023/06/20 08:26:06;;;;;;;13.10;7.07;;;;;;;;;;5078588;27;20102;-50
2023/06/20 08:28:32;;;;;;;12.25;7.28;;;;;;;;;;5080170;28;20055;-50
2023/06/20 08:30:58;;;;;;;16.10;7.40;;;;;;;;;;5080732;28;20040;-50
2023/06/20 08:33:24;;;;;;;11.45;7.13;;;;;;;;;;5077542;28;20053;-51
2023/06/20 08:35:50;;;;;;;12.90;6.53;;;;;;;;;;5079502;28;20037;-51
2023/06/20 08:38:17;;;;;;;20.75;8.55;;;;;;;;;;5079713;28;20616;-50
2023/06/20 08:40:43;;;;;;;10.43;6.93;;;;;;;;;;5080456;28;20040;-50
2023/06/20 08:43:13;;;;;;;14.57;7.15;;;;;;;;;;5079610;28;20514;-50
2023/06/20 08:45:39;;;;;;;18.57;8.13;;;;;;;;;;5076935;28;20048;-50
2023/06/20 08:48:06;;;;;;;15.43;7.15;;;;;;;;;;5077952;28;20139;-51
2023/06/20 08:50:32;;;;;;;10.45;6.28;;;;;;;;;;5078726;28;20079;-50
2023/06/20 08:53:00;;;;;;;10.18;6.28;;;;;;;;;;5078928;28;20112;-50
2023/06/20 08:55:30;;;;;;;8.43;6.68;;;;;;;;;;5080062;27;20095;-50
2023/06/20 08:57:56;;;;;;;9.35;6.45;;;;;;;;;;5079368;28;20090;-50
2023/06/20 09:00:23;;;;;;;7.57;5.75;;;;;;;;;;5080427;28;20040;-50
2023/06/20 09:02:49;;;;;;;8.02;5.90;;;;;;;;;;5070597;28;20549;-50
2023/06/20 09:05:15;;;;;;;14.18;5.80;;;;;;;;;;5078859;28;20076;-50
2023/06/20 09:07:42;;;;;;;11.48;6.20;;;;;;;;;;5079432;28;20045;-50
2023/06/20 09:10:10;;;;;;;10.65;6.32;;;;;;;;;;5079049;28;20051;-50
2023/06/20 09:12:47;;;;;;;9.57;6.43;;;;;;;;;;5077405;28;20055;-50
2023/06/20 09:15:14;;;;;;;12.32;6.55;;;;;;;;;;5079982;28;20045;-51
2023/06/20 09:17:41;;;;;;;7.82;6.15;;;;;;;;;;5078559;28;20130;-50
2023/06/20 09:20:08;;;;;;;8.77;5.78;;;;;;;;;;5077983;28;20029;-50
2023/06/20 09:22:37;;;;;;;7.43;6.07;;;;;;;;;;5078391;28;20045;-50
2023/06/20 09:25:03;;;;;;;7.13;4.28;;;;;;;;;;5078056;28;20060;-51
2023/06/20 09:27:34;;;;;;;8.15;5.75;;;;;;;;;;5078209;28;20041;-50
2023/06/20 09:30:00;;;;;;;11.98;5.47;;;;;;;;;;5078267;28;20048;-50
2023/06/20 09:32:27;;;;;;;13.82;5.80;;;;;;;;;;5079338;28;20103;-50
2023/06/20 09:34:53;;;;;;;6.60;5.00;;;;;;;;;;5078550;28;20852;-50
2023/06/20 09:37:19;;;;;;;10.98;5.22;;;;;;;;;;5078425;28;20047;-51
2023/06/20 09:39:45;;;;;;;7.10;5.15;;;;;;;;;;5078999;28;20478;-50
2023/06/20 09:42:12;;;;;;;8.23;4.88;;;;;;;;;;5094530;27;20653;-50
2023/06/20 09:44:39;;;;;;;10.77;4.82;;;;;;;;;;5079625;28;20059;-50
2023/06/20 09:47:05;;;;;;;7.22;4.82;;;;;;;;;;5078797;28;20541;-51
2023/06/20 09:49:32;;;;;;;8.32;4.93;;;;;;;;;;5078542;28;20041;-51
2023/06/20 09:52:03;;;;;;;6.65;4.32;;;;;;;;;;5078775;28;20051;-51
2023/06/20 09:54:38;;;;;;;7.20;5.77;;;;;;;;;;5077624;28;20043;-51
2023/06/20 09:57:10;;;;;;;6.88;3.90;;;;;;;;;;5078515;28;20305;-51
2023/06/20 09:59:38;;;;;;;6.70;4.15;;;;;;;;;;5078408;28;20036;-51
2023/06/20 10:02:07;;;;;;;10.80;4.60;;;;;;;;;;5077683;28;20036;-51
2023/06/20 10:04:42;;;;;;;5.90;3.80;;;;;;;;;;5075992;28;20056;-51
2023/06/20 10:07:09;;;;;;;6.10;4.65;;;;;;;;;;5078519;28;20106;-51
2023/06/20 10:09:36;;;;;;;5.45;4.32;;;;;;;;;;5091543;27;20083;-50
2023/06/20 10:12:04;;;;;;;5.88;4.15;;;;;;;;;;5077442;28;20500;-51
2023/06/20 10:14:30;;;;;;;8.27;4.45;;;;;;;;;;5078358;28;20124;-51
2023/06/20 10:17:05;;;;;;;6.47;3.75;;;;;;;;;;5077653;28;20516;-51
2023/06/20 10:19:45;;;;;;;7.60;4.10;;;;;;;;;;5077550;28;20119;-51
2023/06/20 10:22:12;;;;;;;4.72;3.40;;;;;;;;;;5078171;28;20053;-51
2023/06/20 10:24:40;;;;;;;7.72;4.35;;;;;;;;;;5077165;28;20044;-50
2023/06/20 10:27:07;;;;;;;7.53;4.10;;;;;;;;;;5077156;28;20070;-51
2023/06/20 10:29:40;;;;;;;8.23;4.47;;;;;;;;;;5077982;28;20040;-51
2023/06/20 10:32:07;;;;;;;7.10;4.45;;;;;;;;;;5077381;28;20040;-51
2023/06/20 10:34:35;;;;;;;7.15;4.57;;;;;;;;;;5077743;28;20586;-51
2023/06/20 10:37:16;;;;;;;6.20;4.28;;;;;;;;;;5078092;28;20040;-51
2023/06/20 10:39:55;;;;;;;16.17;4.68;;;;;;;;;;5092240;27;20040;-51
2023/06/20 10:42:39;;;;;;;7.35;3.78;;;;;;;;;;5078232;28;20040;-51
2023/06/20 10:45:20;;;;;;;8.43;4.22;;;;;;;;;;5076749;28;20055;-51
2023/06/20 10:47:47;;;;;;;5.75;4.55;;;;;;;;;;5077405;28;20122;-51
2023/06/20 10:50:13;;;;;;;5.90;4.07;;;;;;;;;;5076016;28;20039;-51
2023/06/20 10:52:40;;;;;;;7.68;5.07;;;;;;;;;;5077326;28;20544;-51
2023/06/20 10:55:10;;;;;;;5.88;4.35;;;;;;;;;;5077415;28;20063;-51
2023/06/20 10:57:36;;;;;;;6.97;4.07;;;;;;;;;;5077572;28;20041;-51
2023/06/20 11:00:12;;;;;;;5.35;3.63;;;;;;;;;;5069265;28;20618;-51
2023/06/20 11:02:39;;;;;;;3.95;3.55;;;;;;;;;;5092950;27;20044;-51
2023/06/20 11:05:06;;;;;;;4.53;3.33;;;;;;;;;;5075979;28;20127;-51
2023/06/20 11:07:32;;;;;;;5.05;3.50;;;;;;;;;;5077479;28;20037;-51
2023/06/20 11:09:58;;;;;;;5.75;3.72;;;;;;;;;;5077014;28;20074;-51
2023/06/20 11:12:25;;;;;;;4.97;3.05;;;;;;;;;;5077985;28;20529;-51
2023/06/20 11:14:51;;;;;;;5.75;3.53;;;;;;;;;;5077482;28;20542;-51
2023/06/20 11:17:17;;;;;;;8.40;4.13;;;;;;;;;;5092678;27;20063;-51
2023/06/20 11:19:43;;;;;;;4.60;3.33;;;;;;;;;;5076400;28;20090;-51
2023/06/20 11:22:10;;;;;;;5.57;3.35;;;;;;;;;;5077442;28;20562;-51
2023/06/20 11:24:36;;;;;;;4.90;3.22;;;;;;;;;;5076397;28;20101;-51
2023/06/20 11:27:12;;;;;;;4.30;3.10;;;;;;;;;;5091493;27;20041;-51
2023/06/20 11:29:39;;;;;;;5.70;3.20;;;;;;;;;;5076614;28;20094;-51
2023/06/20 11:32:09;;;;;;;4.75;2.97;;;;;;;;;;5076146;28;20041;-51
2023/06/20 11:34:53;;;;;;;5.15;3.45;;;;;;;;;;5075433;28;20126;-51
2023/06/20 11:37:19;;;;;;;8.23;3.95;;;;;;;;;;5075956;27;20538;-51
2023/06/20 11:39:45;;;;;;;4.50;3.22;;;;;;;;;;5076710;28;20045;-51
2023/06/20 11:42:14;;;;;;;5.93;3.83;;;;;;;;;;5075858;28;20435;-51
2023/06/20 11:44:41;;;;;;;7.32;3.90;;;;;;;;;;5091973;27;20044;-51
2023/06/20 11:47:07;;;;;;;4.45;3.13;;;;;;;;;;5075514;28;20041;-51
2023/06/20 11:49:33;;;;;;;4.68;3.55;;;;;;;;;;5075930;28;20045;-51
2023/06/20 11:52:03;;;;;;;4.38;3.03;;;;;;;;;;5077218;28;20101;-51
2023/06/20 11:54:29;;;;;;;5.38;2.90;;;;;;;;;;5075580;28;20037;-51
2023/06/20 11:56:55;;;;;;;5.10;3.53;;;;;;;;;;5077374;28;20427;-51
2023/06/20 11:59:24;;;;;;;4.47;3.35;;;;;;;;;;5074956;28;20044;-51
2023/06/20 12:01:51;;;;;;;6.15;4.57;;;;;;;;;;5076748;28;20039;-51
2023/06/20 12:04:20;;;;;;;3.63;2.70;;;;;;;;;;5075700;28;20048;-51
2023/06/20 12:06:52;;;;;;;5.63;3.10;;;;;;;;;;5075755;28;20584;-52
2023/06/20 12:09:18;;;;;;;7.10;3.22;;;;;;;;;;5075749;28;20064;-51
2023/06/20 12:11:52;;;;;;;4.72;3.22;;;;;;;;;;5077409;28;20032;-51
2023/06/20 12:14:18;;;;;;;5.63;3.05;;;;;;;;;;5075526;28;20553;-51
2023/06/20 12:16:44;;;;;;;7.53;2.70;;;;;;;;;;5092351;27;20043;-51
2023/06/20 12:19:11;;;;;;;5.50;3.15;;;;;;;;;;5076018;28;20041;-51
2023/06/20 12:21:40;;;;;;;7.68;4.15;;;;;;;;;;5076060;28;20482;-51
2023/06/20 12:24:07;;;;;;;4.30;2.75;;;;;;;;;;5076180;28;20053;-51
2023/06/20 12:26:33;;;;;;;4.40;2.85;;;;;;;;;;5091659;27;20545;-51
2023/06/20 12:28:59;;;;;;;4.70;3.35;;;;;;;;;;5091313;27;20132;-51
2023/06/20 12:31:25;;;;;;;8.35;4.00;;;;;;;;;;5077470;28;20547;-51
2023/06/20 12:33:51;;;;;;;5.90;3.05;;;;;;;;;;5077160;28;20044;-51
2023/06/20 12:36:18;;;;;;;4.72;2.90;;;;;;;;;;5076641;28;20237;-51
2023/06/20 12:38:44;;;;;;;5.78;3.05;;;;;;;;;;5076477;28;20573;-51
2023/06/20 12:41:13;;;;;;;4.50;2.92;;;;;;;;;;5075327;28;20702;-50
2023/06/20 12:43:40;;;;;;;4.32;3.22;;;;;;;;;;5075391;28;20045;-51
2023/06/20 12:46:06;;;;;;;4.20;2.95;;;;;;;;;;5075042;28;20106;-51
2023/06/20 12:48:33;;;;;;;4.35;2.95;;;;;;;;;;5090936;27;20037;-51
2023/06/20 12:50:59;;;;;;;4.90;2.97;;;;;;;;;;5075062;28;20598;-51
2023/06/20 12:53:26;;;;;;;4.45;2.80;;;;;;;;;;5075852;28;20104;-51
2023/06/20 12:55:53;;;;;;;6.93;3.55;;;;;;;;;;5076480;28;20136;-51
2023/06/20 12:58:19;;;;;;;4.30;3.42;;;;;;;;;;5067475;28;20079;-51
2023/06/20 13:00:47;;;;;;;4.13;3.05;;;;;;;;;;5066841;28;20048;-51
2023/06/20 13:03:13;;;;;;;6.03;3.53;;;;;;;;;;5073987;28;20094;-51
2023/06/20 13:05:39;;;;;;;4.07;3.22;;;;;;;;;;5089617;27;20481;-59
2023/06/20 13:08:05;;;;;;;4.68;3.40;;;;;;;;;;5074749;28;21567;-59
2023/06/20 13:10:32;;;;;;;5.72;3.22;;;;;;;;;;5075966;28;20102;-60
2023/06/20 13:12:58;;;;;;;6.53;3.58;;;;;;;;;;5079118;28;20040;-60
2023/06/20 13:15:25;;;;;;;4.43;3.28;;;;;;;;;;5075371;28;20068;-60
2023/06/20 13:17:54;;;;;;;10.20;3.40;;;;;;;;;;5093760;27;20036;-60
2023/06/20 13:20:23;;;;;;;5.28;2.97;;;;;;;;;;5079172;28;20048;-60
2023/06/20 13:22:50;;;;;;;5.18;3.00;;;;;;;;;;5077419;28;20083;-60
2023/06/20 13:25:16;;;;;;;6.20;3.75;;;;;;;;;;5079953;28;20086;-60
2023/06/20 13:27:42;;;;;;;4.93;3.03;;;;;;;;;;5079197;28;20527;-59
2023/06/20 13:30:08;;;;;;;6.05;3.22;;;;;;;;;;5079534;28;20055;-59
2023/06/20 13:32:36;;;;;;;6.47;3.03;;;;;;;;;;5079609;28;20828;-59
2023/06/20 13:35:03;;;;;;;5.35;3.25;;;;;;;;;;5077713;27;20052;-60
2023/06/20 13:37:29;;;;;;;6.00;3.15;;;;;;;;;;5078506;28;20049;-60
2023/06/20 13:39:55;;;;;;;5.88;3.75;;;;;;;;;;5077094;28;20032;-60
2023/06/20 13:42:21;;;;;;;5.97;3.28;;;;;;;;;;5075963;28;20052;-60
2023/06/20 13:44:47;;;;;;;6.05;4.07;;;;;;;;;;5076988;28;20055;-60
2023/06/20 13:47:14;;;;;;;6.35;3.40;;;;;;;;;;5079012;28;20032;-59
2023/06/20 13:49:40;;;;;;;6.75;3.45;;;;;;;;;;5076959;28;20115;-60
2023/06/20 13:52:06;;;;;;;8.05;4.20;;;;;;;;;;5079383;28;20060;-60
2023/06/20 13:54:32;;;;;;;4.75;3.40;;;;;;;;;;5076616;28;20102;-60
2023/06/20 13:56:58;;;;;;;5.50;3.53;;;;;;;;;;5070762;28;20124;-60
2023/06/20 13:59:27;;;;;;;4.43;3.05;;;;;;;;;;5079085;28;20048;-60
2023/06/20 14:01:53;;;;;;;4.35;3.25;;;;;;;;;;5079739;28;20079;-60
2023/06/20 14:04:19;;;;;;;7.32;3.70;;;;;;;;;;5076612;28;20444;-60
2023/06/20 14:06:46;;;;;;;5.35;3.47;;;;;;;;;;5093156;27;20048;-60
2023/06/20 14:09:12;;;;;;;4.90;3.20;;;;;;;;;;5078166;28;20040;-60
2023/06/20 14:11:38;;;;;;;6.07;3.45;;;;;;;;;;5076332;28;20040;-59
2023/06/20 14:14:04;;;;;;;4.47;2.63;;;;;;;;;;5076868;28;20080;-60
2023/06/20 14:16:30;;;;;;;4.78;3.10;;;;;;;;;;5078503;28;20072;-60
2023/06/20 14:18:56;;;;;;;4.30;3.47;;;;;;;;;;5078666;28;20037;-60
2023/06/20 14:21:22;;;;;;;8.45;3.38;;;;;;;;;;5093263;27;20519;-59
2023/06/20 14:23:48;;;;;;;4.72;3.13;;;;;;;;;;5076052;28;20069;-60
2023/06/20 14:26:18;;;;;;;4.65;3.15;;;;;;;;;;5076939;28;20052;-59
2023/06/20 14:28:44;;;;;;;4.65;3.03;;;;;;;;;;5076416;28;20045;-60
2023/06/20 14:31:10;;;;;;;4.63;3.17;;;;;;;;;;5078204;28;20520;-60
2023/06/20 14:33:38;;;;;;;6.65;3.33;;;;;;;;;;5069209;28;20441;-61
2023/06/20 14:36:05;;;;;;;4.55;3.08;;;;;;;;;;5084062;27;20844;-60
2023/06/20 14:38:31;;;;;;;9.30;3.42;;;;;;;;;;5077297;28;20051;-60